createdAt,value
2022-10-13T00:00:26.955Z,16.65
2022-10-13T00:00:58.601Z,15.75
2022-10-13T00:01:30.236Z,15.88
2022-10-13T00:02:01.778Z,17.05
2022-10-13T00:02:33.303Z,16.60
2022-10-13T00:03:04.920Z,16.45
2022-10-13T00:03:38.135Z,16.42
2022-10-13T00:04:09.655Z,16.17
2022-10-13T00:04:41.169Z,16.58
2022-10-13T00:05:12.779Z,16.95
2022-10-13T00:05:48.943Z,16.13
2022-10-13T00:06:24.848Z,16.80
2022-10-13T00:06:56.375Z,15.77
2022-10-13T00:07:27.877Z,16.38
2022-10-13T00:08:00.033Z,16.55
2022-10-13T00:08:31.617Z,15.88
2022-10-13T00:09:03.323Z,16.30
2022-10-13T00:09:34.839Z,15.77
2022-10-13T00:10:06.665Z,15.43
2022-10-13T00:10:39.504Z,16.30
2022-10-13T00:11:12.537Z,15.80
2022-10-13T00:11:44.051Z,16.48
2022-10-13T00:12:15.874Z,15.68
2022-10-13T00:12:47.656Z,15.80
2022-10-13T00:13:20.356Z,17.20
2022-10-13T00:13:52.741Z,17.42
2022-10-13T00:14:24.283Z,15.63
2022-10-13T00:14:55.969Z,17.10
2022-10-13T00:15:27.520Z,18.08
2022-10-13T00:15:59.033Z,18.05
2022-10-13T00:16:31.620Z,17.63
2022-10-13T00:17:03.217Z,17.40
2022-10-13T00:17:36.523Z,17.52
2022-10-13T00:18:09.183Z,18.42
2022-10-13T00:18:41.122Z,17.55
2022-10-13T00:19:15.102Z,16.95
2022-10-13T00:19:46.782Z,17.33
2022-10-13T00:20:18.313Z,17.10
2022-10-13T00:20:50.029Z,17.70
2022-10-13T00:21:24.379Z,17.92
2022-10-13T00:21:55.897Z,16.73
2022-10-13T00:22:28.191Z,16.27
2022-10-13T00:22:59.779Z,17.13
2022-10-13T00:23:33.627Z,16.52
2022-10-13T00:24:05.341Z,16.88
2022-10-13T00:24:36.901Z,17.08
2022-10-13T00:25:08.911Z,17.08
2022-10-13T00:25:48.432Z,17.58
2022-10-13T00:26:22.268Z,16.67
2022-10-13T00:26:53.838Z,16.23
2022-10-13T00:27:25.474Z,16.50
2022-10-13T00:27:57.032Z,16.73
2022-10-13T00:28:28.571Z,17.10
2022-10-13T00:29:00.505Z,16.92
2022-10-13T00:29:32.215Z,17.63
2022-10-13T00:30:04.622Z,18.23
2022-10-13T00:30:37.026Z,17.35
2022-10-13T00:31:26.082Z,16.83
2022-10-13T00:31:57.694Z,17.77
2022-10-13T00:32:29.455Z,16.70
2022-10-13T00:33:01.039Z,16.85
2022-10-13T00:33:33.578Z,16.88
2022-10-13T00:34:05.162Z,17.92
2022-10-13T00:34:37.661Z,17.75
2022-10-13T00:35:09.748Z,17.20
2022-10-13T00:35:47.155Z,17.38
2022-10-13T00:36:19.834Z,16.92
2022-10-13T00:36:51.389Z,18.15
2022-10-13T00:37:22.966Z,16.27
2022-10-13T00:37:54.558Z,18.08
2022-10-13T00:38:26.068Z,16.85
2022-10-13T00:38:58.280Z,17.50
2022-10-13T00:39:29.996Z,17.75
2022-10-13T00:40:01.776Z,16.95
2022-10-13T00:40:33.280Z,17.05
2022-10-13T00:41:05.815Z,17.52
2022-10-13T00:41:37.376Z,17.08
2022-10-13T00:42:12.440Z,16.75
2022-10-13T00:42:43.958Z,16.02
2022-10-13T00:43:20.938Z,17.50
2022-10-13T00:44:04.446Z,17.27
2022-10-13T00:45:00.044Z,17.58
2022-10-13T00:45:31.564Z,17.15
2022-10-13T00:46:03.098Z,16.75
2022-10-13T00:46:36.342Z,17.63
2022-10-13T00:47:07.956Z,18.13
2022-10-13T00:47:43.520Z,17.08
2022-10-13T00:48:15.061Z,17.60
2022-10-13T00:48:47.439Z,17.50
2022-10-13T00:49:19.242Z,18.25
2022-10-13T00:49:52.555Z,17.45
2022-10-13T00:50:29.938Z,17.25
2022-10-13T00:51:01.566Z,16.35
2022-10-13T00:51:38.300Z,16.77
2022-10-13T00:52:09.864Z,16.48
2022-10-13T00:52:42.880Z,15.57
2022-10-13T00:53:15.710Z,16.50
2022-10-13T00:53:48.201Z,17.20
2022-10-13T00:54:24.253Z,16.65
2022-10-13T00:54:56.518Z,16.38
2022-10-13T00:55:31.910Z,17.15
2022-10-13T00:56:05.545Z,17.23
2022-10-13T00:56:38.656Z,16.00
2022-10-13T00:57:11.002Z,16.75
2022-10-13T00:57:45.996Z,16.92
2022-10-13T00:58:19.660Z,16.02
2022-10-13T00:58:52.190Z,16.85
2022-10-13T00:59:27.418Z,17.13
2022-10-13T01:00:00.178Z,16.63
2022-10-13T01:00:32.846Z,18.02
2022-10-13T01:01:05.400Z,16.92
2022-10-13T01:01:37.994Z,18.15
2022-10-13T01:02:09.499Z,17.33
2022-10-13T01:02:41.228Z,17.73
2022-10-13T01:03:12.850Z,17.10
2022-10-13T01:03:44.386Z,16.88
2022-10-13T01:04:18.683Z,16.50
2022-10-13T01:04:51.476Z,17.17
2022-10-13T01:05:25.002Z,17.40
2022-10-13T01:05:59.859Z,17.70
2022-10-13T01:06:31.532Z,16.17
2022-10-13T01:07:04.315Z,16.80
2022-10-13T01:07:36.085Z,17.08
2022-10-13T01:08:08.372Z,17.10
2022-10-13T01:08:40.118Z,17.65
2022-10-13T01:09:11.756Z,17.35
2022-10-13T01:09:43.415Z,17.02
2022-10-13T01:10:24.773Z,17.10
2022-10-13T01:11:18.168Z,16.52
2022-10-13T01:12:01.663Z,15.77
2022-10-13T01:12:45.324Z,16.60
2022-10-13T01:13:50.734Z,16.00
2022-10-13T01:14:35.982Z,15.27
2022-10-13T01:15:22.568Z,17.00
2022-10-13T01:15:54.413Z,17.00
2022-10-13T01:16:40.910Z,15.30
2022-10-13T01:17:28.758Z,16.65
2022-10-13T01:18:26.557Z,16.50
2022-10-13T01:19:00.955Z,16.58
2022-10-13T01:20:05.773Z,16.77
2022-10-13T01:20:59.243Z,15.43
2022-10-13T01:21:41.161Z,16.20
2022-10-13T01:22:37.524Z,16.58
2022-10-13T01:23:27.751Z,16.15
2022-10-13T01:24:47.218Z,16.27
2022-10-13T01:25:39.478Z,15.45
2022-10-13T01:26:29.486Z,16.08
2022-10-13T01:27:06.872Z,15.23
2022-10-13T01:27:57.081Z,16.67
2022-10-13T01:28:47.294Z,16.33
2022-10-13T01:29:56.266Z,16.83
2022-10-13T01:30:28.522Z,16.45
2022-10-13T01:31:15.025Z,16.42
2022-10-13T01:32:12.217Z,16.42
2022-10-13T01:33:01.549Z,16.42
2022-10-13T01:33:45.588Z,17.45
2022-10-13T01:34:31.854Z,16.77
2022-10-13T01:35:11.858Z,16.25
2022-10-13T01:36:24.579Z,15.98
2022-10-13T01:37:04.848Z,15.35
2022-10-13T01:37:55.067Z,15.55
2022-10-13T01:38:47.424Z,14.85
2022-10-13T01:39:29.795Z,15.15
2022-10-13T01:40:16.734Z,15.27
2022-10-13T01:40:51.507Z,15.30
2022-10-13T01:41:32.560Z,15.57
2022-10-13T01:42:24.364Z,16.52
2022-10-13T01:43:02.762Z,15.18
2022-10-13T01:43:45.322Z,15.32
2022-10-13T01:44:31.978Z,15.88
2022-10-13T01:45:04.443Z,14.45
2022-10-13T01:45:42.513Z,15.65
2022-10-13T01:46:17.698Z,16.40
2022-10-13T01:46:51.556Z,16.05
2022-10-13T01:47:24.970Z,15.80
2022-10-13T01:47:59.562Z,16.50
2022-10-13T01:48:32.761Z,16.25
2022-10-13T01:49:11.133Z,16.58
2022-10-13T01:49:44.494Z,15.15
2022-10-13T01:50:18.295Z,15.20
2022-10-13T01:50:50.702Z,15.23
2022-10-13T01:51:25.143Z,14.88
2022-10-13T01:52:01.763Z,15.60
2022-10-13T01:52:37.240Z,16.00
2022-10-13T01:53:09.938Z,16.35
2022-10-13T01:53:42.751Z,16.10
2022-10-13T01:54:14.390Z,16.30
2022-10-13T01:54:52.796Z,16.67
2022-10-13T01:55:24.385Z,16.05
2022-10-13T01:55:58.755Z,15.50
2022-10-13T01:56:30.282Z,16.38
2022-10-13T01:57:01.886Z,16.55
2022-10-13T01:57:42.078Z,16.77
2022-10-13T01:58:13.618Z,16.13
2022-10-13T01:58:46.299Z,15.63
2022-10-13T01:59:17.803Z,16.33
2022-10-13T01:59:49.343Z,15.77
2022-10-13T02:01:13.069Z,15.98
2022-10-13T02:01:52.392Z,17.02
2022-10-13T02:02:31.694Z,15.77
2022-10-13T02:03:13.423Z,16.00
2022-10-13T02:03:59.958Z,16.70
2022-10-13T02:04:54.016Z,16.05
2022-10-13T02:05:50.714Z,15.32
2022-10-13T02:06:28.023Z,15.68
2022-10-13T02:07:06.995Z,15.32
2022-10-13T02:07:45.453Z,15.73
2022-10-13T02:08:29.612Z,15.88
2022-10-13T02:09:18.553Z,16.33
2022-10-13T02:10:27.323Z,15.82
2022-10-13T02:11:20.344Z,15.75
2022-10-13T02:11:58.669Z,16.20
2022-10-13T02:12:36.884Z,15.65
2022-10-13T02:13:12.553Z,15.43
2022-10-13T02:14:12.773Z,15.40
2022-10-13T02:14:46.941Z,15.60
2022-10-13T02:15:23.500Z,15.30
2022-10-13T02:15:58.924Z,16.00
2022-10-13T02:16:36.404Z,16.88
2022-10-13T02:17:07.968Z,16.88
2022-10-13T02:17:40.264Z,18.17
2022-10-13T02:18:14.912Z,17.35
2022-10-13T02:18:47.173Z,17.83
2022-10-13T02:19:19.048Z,17.13
2022-10-13T02:19:50.569Z,17.08
2022-10-13T02:20:22.763Z,18.02
2022-10-13T02:20:55.901Z,17.67
2022-10-13T02:21:28.207Z,17.08
2022-10-13T02:21:59.938Z,17.48
2022-10-13T02:22:37.252Z,17.20
2022-10-13T02:23:12.100Z,16.85
2022-10-13T02:23:44.676Z,15.82
2022-10-13T02:24:16.321Z,17.10
2022-10-13T02:24:47.974Z,15.95
2022-10-13T02:25:19.529Z,16.25
2022-10-13T02:25:51.170Z,16.63
2022-10-13T02:26:22.970Z,16.45
2022-10-13T02:26:54.716Z,15.65
2022-10-13T02:27:26.496Z,15.88
2022-10-13T02:28:00.764Z,15.43
2022-10-13T02:28:32.491Z,16.10
2022-10-13T02:29:12.363Z,14.65
2022-10-13T02:29:56.037Z,14.07
2022-10-13T02:30:30.231Z,13.70
2022-10-13T02:31:02.121Z,14.50
2022-10-13T02:31:33.642Z,15.35
2022-10-13T02:32:05.302Z,14.13
2022-10-13T02:32:37.146Z,14.40
2022-10-13T02:33:09.576Z,15.18
2022-10-13T02:33:41.140Z,14.90
2022-10-13T02:34:13.361Z,15.02
2022-10-13T02:34:44.885Z,14.75
2022-10-13T02:35:16.829Z,15.27
2022-10-13T02:35:48.326Z,14.57
2022-10-13T02:36:19.831Z,15.30
2022-10-13T02:36:51.537Z,14.52
2022-10-13T02:37:25.527Z,14.57
2022-10-13T02:37:57.057Z,15.07
2022-10-13T02:38:28.571Z,14.35
2022-10-13T02:39:00.378Z,14.65
2022-10-13T02:39:31.885Z,14.95
2022-10-13T02:40:03.854Z,15.30
2022-10-13T02:40:35.577Z,15.73
2022-10-13T02:41:07.095Z,15.23
2022-10-13T02:41:38.658Z,14.40
2022-10-13T02:42:10.385Z,14.70
2022-10-13T02:42:41.932Z,15.80
2022-10-13T02:43:13.454Z,15.10
2022-10-13T02:43:44.951Z,15.60
2022-10-13T02:44:16.458Z,14.48
2022-10-13T02:44:47.969Z,14.60
2022-10-13T02:45:19.695Z,16.00
2022-10-13T02:45:51.552Z,15.15
2022-10-13T02:46:23.111Z,15.15
2022-10-13T02:46:54.629Z,15.18
2022-10-13T02:47:26.170Z,14.88
2022-10-13T02:47:58.166Z,14.70
2022-10-13T02:48:29.790Z,15.73
2022-10-13T02:49:01.654Z,14.25
2022-10-13T02:49:33.163Z,14.73
2022-10-13T02:50:05.352Z,15.95
2022-10-13T02:50:36.883Z,15.60
2022-10-13T02:51:08.469Z,15.77
2022-10-13T02:51:40.550Z,14.95
2022-10-13T02:52:12.273Z,15.60
2022-10-13T02:52:43.770Z,16.27
2022-10-13T02:53:15.288Z,15.38
2022-10-13T02:53:46.988Z,15.20
2022-10-13T02:54:18.590Z,14.85
2022-10-13T02:54:50.091Z,15.18
2022-10-13T02:55:21.676Z,15.40
2022-10-13T02:55:53.202Z,14.35
2022-10-13T02:56:24.714Z,16.15
2022-10-13T02:56:56.236Z,15.63
2022-10-13T02:57:27.762Z,15.55
2022-10-13T02:57:59.287Z,15.18
2022-10-13T02:58:30.871Z,15.13
2022-10-13T02:59:02.402Z,14.98
2022-10-13T02:59:33.961Z,14.90
2022-10-13T03:00:07.225Z,16.55
2022-10-13T03:00:39.696Z,15.38
2022-10-13T03:01:14.121Z,15.38
2022-10-13T03:01:45.763Z,14.77
2022-10-13T03:02:18.008Z,14.70
2022-10-13T03:02:49.830Z,15.00
2022-10-13T03:03:21.329Z,16.13
2022-10-13T03:03:52.823Z,15.85
2022-10-13T03:04:24.345Z,15.02
2022-10-13T03:04:56.075Z,14.45
2022-10-13T03:05:27.605Z,15.30
2022-10-13T03:05:59.123Z,15.77
2022-10-13T03:06:30.687Z,15.45
2022-10-13T03:07:02.410Z,15.35
2022-10-13T03:07:33.951Z,16.40
2022-10-13T03:08:05.803Z,14.48
2022-10-13T03:08:37.617Z,14.73
2022-10-13T03:09:09.125Z,15.40
2022-10-13T03:09:40.667Z,15.27
2022-10-13T03:10:12.168Z,15.45
2022-10-13T03:10:43.679Z,15.70
2022-10-13T03:11:15.213Z,15.60
2022-10-13T03:11:46.763Z,14.48
2022-10-13T03:12:18.680Z,16.52
2022-10-13T03:12:50.855Z,15.23
2022-10-13T03:13:22.359Z,16.30
2022-10-13T03:13:54.224Z,16.17
2022-10-13T03:14:25.841Z,15.73
2022-10-13T03:14:57.470Z,16.00
2022-10-13T03:15:28.993Z,14.90
2022-10-13T03:16:00.509Z,15.05
2022-10-13T03:16:32.038Z,15.10
2022-10-13T03:17:03.819Z,15.85
2022-10-13T03:17:35.376Z,16.58
2022-10-13T03:18:06.923Z,15.10
2022-10-13T03:18:38.436Z,16.38
2022-10-13T03:19:10.162Z,15.52
2022-10-13T03:19:41.670Z,15.77
2022-10-13T03:20:13.199Z,15.13
2022-10-13T03:20:44.899Z,15.88
2022-10-13T03:21:16.395Z,15.77
2022-10-13T03:21:47.955Z,15.65
2022-10-13T03:22:19.835Z,15.40
2022-10-13T03:22:51.487Z,15.88
2022-10-13T03:23:22.997Z,15.57
2022-10-13T03:23:54.555Z,14.93
2022-10-13T03:24:26.094Z,15.70
2022-10-13T03:24:57.632Z,14.40
2022-10-13T03:25:29.138Z,15.18
2022-10-13T03:26:00.769Z,14.20
2022-10-13T03:26:33.442Z,14.73
2022-10-13T03:27:04.952Z,14.25
2022-10-13T03:27:36.473Z,14.52
2022-10-13T03:28:08.021Z,15.38
2022-10-13T03:28:39.770Z,15.25
2022-10-13T03:29:16.097Z,15.73
2022-10-13T03:29:47.633Z,14.70
2022-10-13T03:30:19.251Z,15.63
2022-10-13T03:30:51.296Z,15.02
2022-10-13T03:31:22.840Z,15.05
2022-10-13T03:31:54.349Z,13.82
2022-10-13T03:32:26.258Z,13.82
2022-10-13T03:32:57.773Z,15.18
2022-10-13T03:33:29.399Z,15.27
2022-10-13T03:34:00.922Z,14.02
2022-10-13T03:34:32.622Z,15.10
2022-10-13T03:35:06.398Z,14.82
2022-10-13T03:35:37.933Z,14.60
2022-10-13T03:36:11.227Z,14.93
2022-10-13T03:36:42.830Z,16.25
2022-10-13T03:37:14.347Z,15.40
2022-10-13T03:37:45.849Z,15.05
2022-10-13T03:38:17.349Z,14.48
2022-10-13T03:38:48.959Z,14.57
2022-10-13T03:39:20.459Z,15.75
2022-10-13T03:39:51.971Z,15.55
2022-10-13T03:40:23.760Z,14.85
2022-10-13T03:40:55.396Z,15.95
2022-10-13T03:41:26.935Z,15.48
2022-10-13T03:41:58.441Z,14.80
2022-10-13T03:42:29.976Z,16.13
2022-10-13T03:43:01.479Z,15.65
2022-10-13T03:43:33.369Z,15.25
2022-10-13T03:44:05.118Z,15.25
2022-10-13T03:44:36.614Z,15.80
2022-10-13T03:45:09.978Z,14.85
2022-10-13T03:45:41.500Z,15.40
2022-10-13T03:46:16.561Z,15.25
2022-10-13T03:46:48.053Z,14.73
2022-10-13T03:47:19.647Z,13.65
2022-10-13T03:47:51.152Z,15.30
2022-10-13T03:48:22.984Z,15.40
2022-10-13T03:48:54.879Z,15.00
2022-10-13T03:49:26.550Z,14.70
2022-10-13T03:49:58.105Z,15.02
2022-10-13T03:50:29.613Z,15.20
2022-10-13T03:51:08.409Z,15.50
2022-10-13T03:51:40.218Z,15.45
2022-10-13T03:52:11.854Z,16.10
2022-10-13T03:52:43.360Z,15.85
2022-10-13T03:53:15.494Z,14.88
2022-10-13T03:53:48.447Z,15.10
2022-10-13T03:54:20.118Z,14.13
2022-10-13T03:54:51.766Z,15.40
2022-10-13T03:55:23.270Z,15.38
2022-10-13T03:55:56.831Z,13.95
2022-10-13T03:56:28.695Z,14.50
2022-10-13T03:57:00.199Z,15.35
2022-10-13T03:57:31.717Z,14.38
2022-10-13T03:58:03.213Z,14.88
2022-10-13T03:58:35.159Z,14.57
2022-10-13T03:59:07.297Z,15.27
2022-10-13T03:59:42.102Z,15.85
2022-10-13T04:00:14.466Z,16.05
2022-10-13T04:00:46.324Z,15.95
2022-10-13T04:01:17.892Z,14.63
2022-10-13T04:01:49.560Z,15.40
2022-10-13T04:02:21.429Z,16.27
2022-10-13T04:02:53.070Z,15.73
2022-10-13T04:03:24.769Z,15.80
2022-10-13T04:03:57.829Z,16.00
2022-10-13T04:04:29.329Z,15.80
2022-10-13T04:05:00.822Z,15.60
2022-10-13T04:05:34.532Z,15.88
2022-10-13T04:06:06.854Z,15.60
2022-10-13T04:06:38.959Z,14.38
2022-10-13T04:07:10.479Z,14.88
2022-10-13T04:07:41.970Z,15.38
2022-10-13T04:08:14.358Z,15.18
2022-10-13T04:08:46.269Z,15.68
2022-10-13T04:09:17.832Z,14.85
2022-10-13T04:09:49.799Z,15.18
2022-10-13T04:10:21.295Z,15.00
2022-10-13T04:11:04.209Z,14.85
2022-10-13T04:11:35.754Z,13.52
2022-10-13T04:12:07.382Z,14.38
2022-10-13T04:12:38.947Z,14.63
2022-10-13T04:13:10.522Z,14.38
2022-10-13T04:13:42.617Z,13.85
2022-10-13T04:14:14.102Z,15.13
2022-10-13T04:14:45.600Z,14.50
2022-10-13T04:15:17.219Z,14.07
2022-10-13T04:15:48.725Z,15.02
2022-10-13T04:16:23.910Z,15.30
2022-10-13T04:16:55.449Z,13.70
2022-10-13T04:17:26.995Z,14.55
2022-10-13T04:17:58.492Z,14.02
2022-10-13T04:18:30.855Z,14.32
2022-10-13T04:19:04.754Z,13.88
2022-10-13T04:19:36.446Z,14.85
2022-10-13T04:20:08.711Z,14.63
2022-10-13T04:20:40.533Z,15.02
2022-10-13T04:21:15.033Z,14.45
2022-10-13T04:21:46.522Z,14.05
2022-10-13T04:22:18.437Z,14.30
2022-10-13T04:22:50.350Z,14.13
2022-10-13T04:23:21.893Z,14.15
2022-10-13T04:23:57.841Z,15.00
2022-10-13T04:24:29.374Z,13.98
2022-10-13T04:25:00.918Z,14.15
2022-10-13T04:25:35.463Z,13.18
2022-10-13T04:26:07.372Z,14.80
2022-10-13T04:26:39.697Z,13.93
2022-10-13T04:27:11.274Z,14.40
2022-10-13T04:27:42.895Z,14.07
2022-10-13T04:28:14.492Z,14.20
2022-10-13T04:28:47.794Z,14.48
2022-10-13T04:29:19.506Z,13.93
2022-10-13T04:29:51.018Z,14.93
2022-10-13T04:30:22.527Z,14.15
2022-10-13T04:30:54.072Z,14.60
2022-10-13T04:31:28.587Z,14.15
2022-10-13T04:32:00.392Z,13.32
2022-10-13T04:32:32.364Z,14.95
2022-10-13T04:33:03.979Z,13.73
2022-10-13T04:33:35.473Z,14.73
2022-10-13T04:34:07.790Z,13.95
2022-10-13T04:34:40.820Z,13.95
2022-10-13T04:35:12.357Z,13.73
2022-10-13T04:35:43.857Z,14.20
2022-10-13T04:36:16.038Z,13.05
2022-10-13T04:36:51.798Z,13.88
2022-10-13T04:37:24.155Z,13.40
2022-10-13T04:37:57.991Z,13.25
2022-10-13T04:38:29.510Z,13.82
2022-10-13T04:39:01.025Z,14.60
2022-10-13T04:39:32.644Z,14.27
2022-10-13T04:40:04.578Z,14.00
2022-10-13T04:40:36.229Z,14.25
2022-10-13T04:41:09.317Z,13.45
2022-10-13T04:41:40.824Z,14.25
2022-10-13T04:42:12.452Z,14.65
2022-10-13T04:42:43.977Z,14.07
2022-10-13T04:43:15.871Z,13.90
2022-10-13T04:43:49.531Z,14.30
2022-10-13T04:44:21.213Z,14.00
2022-10-13T04:44:52.751Z,13.73
2022-10-13T04:45:24.249Z,14.23
2022-10-13T04:46:09.264Z,13.65
2022-10-13T04:46:40.778Z,13.48
2022-10-13T04:47:12.283Z,13.40
2022-10-13T04:47:44.070Z,13.20
2022-10-13T04:48:15.583Z,13.65
2022-10-13T04:48:47.447Z,14.18
2022-10-13T04:49:19.019Z,13.30
2022-10-13T04:49:50.548Z,15.02
2022-10-13T04:50:22.125Z,13.85
2022-10-13T04:51:07.763Z,14.43
2022-10-13T04:51:39.449Z,14.40
2022-10-13T04:52:11.021Z,17.15
2022-10-13T04:52:42.895Z,14.02
2022-10-13T04:53:19.060Z,13.63
2022-10-13T04:53:56.227Z,13.95
2022-10-13T04:54:27.795Z,13.90
2022-10-13T04:54:59.391Z,13.40
2022-10-13T04:55:30.924Z,14.35
2022-10-13T04:56:08.510Z,13.82
2022-10-13T04:56:40.061Z,12.95
2022-10-13T04:57:11.601Z,13.32
2022-10-13T04:57:43.100Z,12.70
2022-10-13T04:58:14.603Z,13.57
2022-10-13T04:58:46.650Z,13.48
2022-10-13T04:59:18.147Z,13.32
2022-10-13T04:59:49.691Z,14.02
2022-10-13T05:00:21.499Z,13.75
2022-10-13T05:00:53.202Z,13.82
2022-10-13T05:01:25.392Z,13.77
2022-10-13T05:01:56.889Z,13.85
2022-10-13T05:02:28.431Z,13.45
2022-10-13T05:02:59.971Z,13.80
2022-10-13T05:03:31.657Z,14.38
2022-10-13T05:04:04.670Z,14.07
2022-10-13T05:04:36.495Z,14.55
2022-10-13T05:05:08.486Z,14.13
2022-10-13T05:05:40.140Z,13.75
2022-10-13T05:06:21.040Z,14.35
2022-10-13T05:07:16.882Z,13.15
2022-10-13T05:07:44.179Z,13.85
2022-10-13T05:08:15.734Z,12.90
2022-10-13T05:08:47.273Z,13.45
2022-10-13T05:09:19.051Z,13.80
2022-10-13T05:09:51.897Z,14.30
2022-10-13T05:10:23.427Z,13.88
2022-10-13T05:10:57.281Z,14.13
2022-10-13T05:11:29.866Z,12.82
2022-10-13T05:12:01.570Z,13.40
2022-10-13T05:12:33.158Z,14.02
2022-10-13T05:13:04.697Z,13.90
2022-10-13T05:13:37.038Z,13.52
2022-10-13T05:14:08.538Z,14.38
2022-10-13T05:14:40.042Z,13.52
2022-10-13T05:15:11.570Z,13.38
2022-10-13T05:15:43.071Z,13.55
2022-10-13T05:16:17.382Z,13.80
2022-10-13T05:16:49.244Z,13.82
2022-10-13T05:17:20.748Z,14.60
2022-10-13T05:17:52.283Z,13.90
2022-10-13T05:18:23.871Z,14.15
2022-10-13T05:18:55.476Z,13.38
2022-10-13T05:19:27.008Z,14.23
2022-10-13T05:19:58.531Z,12.90
2022-10-13T05:20:30.032Z,14.07
2022-10-13T05:21:13.649Z,14.15
2022-10-13T05:21:45.185Z,15.00
2022-10-13T05:22:17.069Z,13.73
2022-10-13T05:22:48.733Z,13.70
2022-10-13T05:23:20.230Z,12.35
2022-10-13T05:23:56.010Z,14.07
2022-10-13T05:24:36.727Z,13.30
2022-10-13T05:25:08.439Z,13.43
2022-10-13T05:25:40.014Z,12.60
2022-10-13T05:26:14.539Z,13.88
2022-10-13T05:26:46.049Z,13.32
2022-10-13T05:27:18.204Z,13.65
2022-10-13T05:27:49.771Z,13.05
2022-10-13T05:28:21.623Z,12.98
2022-10-13T05:28:53.291Z,13.00
2022-10-13T05:29:24.881Z,13.93
2022-10-13T05:29:56.438Z,13.25
2022-10-13T05:30:27.929Z,13.40
2022-10-13T05:31:09.675Z,12.50
2022-10-13T05:31:41.210Z,13.07
2022-10-13T05:32:12.762Z,12.52
2022-10-13T05:32:44.264Z,12.85
2022-10-13T05:33:15.753Z,13.40
2022-10-13T05:33:48.728Z,13.27
2022-10-13T05:34:20.282Z,13.00
2022-10-13T05:34:51.809Z,13.00
2022-10-13T05:35:23.367Z,12.88
2022-10-13T05:35:55.074Z,12.85
2022-10-13T05:36:32.086Z,13.02
2022-10-13T05:37:03.603Z,13.85
2022-10-13T05:37:35.106Z,12.93
2022-10-13T05:38:06.601Z,12.63
2022-10-13T05:38:38.614Z,13.02
2022-10-13T05:39:10.293Z,13.50
2022-10-13T05:39:41.783Z,12.82
2022-10-13T05:40:13.808Z,13.02
2022-10-13T05:40:45.311Z,13.13
2022-10-13T05:41:16.827Z,13.85
2022-10-13T05:41:48.334Z,13.45
2022-10-13T05:42:20.080Z,13.02
2022-10-13T05:42:52.635Z,13.18
2022-10-13T05:43:24.227Z,12.88
2022-10-13T05:44:04.442Z,12.60
2022-10-13T05:44:37.456Z,13.20
2022-10-13T05:45:11.059Z,12.73
2022-10-13T05:45:42.591Z,13.15
2022-10-13T05:46:14.577Z,12.20
2022-10-13T05:46:46.144Z,12.90
2022-10-13T05:47:17.669Z,12.93
2022-10-13T05:47:49.227Z,12.77
2022-10-13T05:48:20.724Z,13.65
2022-10-13T05:48:53.150Z,14.05
2022-10-13T05:49:24.709Z,13.55
2022-10-13T05:49:56.228Z,13.82
2022-10-13T05:50:28.427Z,14.95
2022-10-13T05:51:01.926Z,14.10
2022-10-13T05:51:42.949Z,13.10
2022-10-13T05:52:14.481Z,13.13
2022-10-13T05:52:46.414Z,13.50
2022-10-13T05:53:18.020Z,14.05
2022-10-13T05:54:20.087Z,14.00
2022-10-13T05:54:55.590Z,13.90
2022-10-13T05:55:27.229Z,12.70
2022-10-13T05:56:06.233Z,13.10
2022-10-13T05:56:46.268Z,13.48
2022-10-13T05:57:24.072Z,12.80
2022-10-13T05:57:55.627Z,12.45
2022-10-13T05:58:27.175Z,13.00
2022-10-13T05:59:02.343Z,14.13
2022-10-13T05:59:37.475Z,12.60
2022-10-13T06:00:17.117Z,13.18
2022-10-13T06:00:49.125Z,14.00
2022-10-13T06:01:24.750Z,14.27
2022-10-13T06:01:56.523Z,14.40
2022-10-13T06:02:34.843Z,14.75
2022-10-13T06:03:22.643Z,14.27
2022-10-13T06:03:58.686Z,13.88
2022-10-13T06:04:44.676Z,15.48
2022-10-13T06:05:18.275Z,14.15
2022-10-13T06:05:49.843Z,14.57
2022-10-13T06:06:25.818Z,13.93
2022-10-13T06:07:00.625Z,14.43
2022-10-13T06:07:32.161Z,15.02
2022-10-13T06:08:03.850Z,14.57
2022-10-13T06:08:36.034Z,14.73
2022-10-13T06:09:07.620Z,15.20
2022-10-13T06:09:40.195Z,14.75
2022-10-13T06:10:12.234Z,14.52
2022-10-13T06:10:43.971Z,14.40
2022-10-13T06:11:15.553Z,14.85
2022-10-13T06:11:47.204Z,14.32
2022-10-13T06:12:19.008Z,15.15
2022-10-13T06:12:50.828Z,13.95
2022-10-13T06:13:22.353Z,14.63
2022-10-13T06:13:53.861Z,14.55
2022-10-13T06:14:25.353Z,14.55
2022-10-13T06:14:56.886Z,13.80
2022-10-13T06:15:28.562Z,14.32
2022-10-13T06:16:00.359Z,14.85
2022-10-13T06:16:31.992Z,15.05
2022-10-13T06:17:04.235Z,14.15
2022-10-13T06:17:37.954Z,14.02
2022-10-13T06:18:10.430Z,15.07
2022-10-13T06:18:41.978Z,13.90
2022-10-13T06:19:13.555Z,13.45
2022-10-13T06:19:45.429Z,14.50
2022-10-13T06:20:17.063Z,14.27
2022-10-13T06:20:48.644Z,14.30
2022-10-13T06:21:20.161Z,13.63
2022-10-13T06:21:52.041Z,14.20
2022-10-13T06:22:23.617Z,13.38
2022-10-13T06:22:56.203Z,14.00
2022-10-13T06:23:27.703Z,15.25
2022-10-13T06:23:59.228Z,14.50
2022-10-13T06:24:30.885Z,14.10
2022-10-13T06:25:03.815Z,14.45
2022-10-13T06:25:36.014Z,13.85
2022-10-13T06:26:09.117Z,14.40
2022-10-13T06:26:41.255Z,14.02
2022-10-13T06:27:12.773Z,14.23
2022-10-13T06:27:44.319Z,14.63
2022-10-13T06:28:16.358Z,14.32
2022-10-13T06:28:51.084Z,14.63
2022-10-13T06:29:24.085Z,14.13
2022-10-13T06:29:55.795Z,14.57
2022-10-13T06:30:28.038Z,13.98
2022-10-13T06:30:59.559Z,14.10
2022-10-13T06:31:31.066Z,14.35
2022-10-13T06:32:02.732Z,14.00
2022-10-13T06:32:34.341Z,14.75
2022-10-13T06:33:05.879Z,14.68
2022-10-13T06:33:37.470Z,14.75
2022-10-13T06:34:09.012Z,14.95
2022-10-13T06:34:40.542Z,14.07
2022-10-13T06:35:12.078Z,14.45
2022-10-13T06:35:43.582Z,15.52
2022-10-13T06:36:15.133Z,14.73
2022-10-13T06:36:47.228Z,15.23
2022-10-13T06:37:20.340Z,14.95
2022-10-13T06:37:54.965Z,14.25
2022-10-13T06:38:26.470Z,14.88
2022-10-13T06:38:57.972Z,14.45
2022-10-13T06:39:29.478Z,14.95
2022-10-13T06:40:00.991Z,14.40
2022-10-13T06:40:32.537Z,14.30
2022-10-13T06:41:05.364Z,13.90
2022-10-13T06:41:36.899Z,13.63
2022-10-13T06:42:08.610Z,14.27
2022-10-13T06:42:40.366Z,13.73
2022-10-13T06:43:11.974Z,13.73
2022-10-13T06:43:44.003Z,14.57
2022-10-13T06:44:15.514Z,14.85
2022-10-13T06:44:47.076Z,14.40
2022-10-13T06:45:19.562Z,14.45
2022-10-13T06:45:51.082Z,13.95
2022-10-13T06:46:22.659Z,14.20
2022-10-13T06:46:54.164Z,14.27
2022-10-13T06:47:25.922Z,14.02
2022-10-13T06:47:57.447Z,13.02
2022-10-13T06:48:29.273Z,14.60
2022-10-13T06:49:00.844Z,13.90
2022-10-13T06:49:32.472Z,13.70
2022-10-13T06:50:04.207Z,14.25
2022-10-13T06:50:39.430Z,13.23
2022-10-13T06:51:13.615Z,13.95
2022-10-13T06:51:45.145Z,14.23
2022-10-13T06:52:16.816Z,13.63
2022-10-13T06:52:48.494Z,14.57
2022-10-13T06:53:20.414Z,14.07
2022-10-13T06:53:51.946Z,14.53
2022-10-13T06:54:23.442Z,13.23
2022-10-13T06:54:54.968Z,13.52
2022-10-13T06:55:26.507Z,14.00
2022-10-13T06:55:59.064Z,13.52
2022-10-13T06:56:30.860Z,13.32
2022-10-13T06:57:05.237Z,14.27
2022-10-13T06:57:37.061Z,12.95
2022-10-13T06:58:08.589Z,13.30
2022-10-13T06:58:40.757Z,13.90
2022-10-13T06:59:12.325Z,13.40
2022-10-13T06:59:44.482Z,13.13
2022-10-13T07:00:16.292Z,13.18
2022-10-13T07:00:47.863Z,13.77
2022-10-13T07:01:20.043Z,13.45
2022-10-13T07:01:52.147Z,13.77
2022-10-13T07:02:23.665Z,13.55
2022-10-13T07:02:55.223Z,12.75
2022-10-13T07:03:27.106Z,13.40
2022-10-13T07:03:58.953Z,13.77
2022-10-13T07:04:30.479Z,13.37
2022-10-13T07:05:02.922Z,12.57
2022-10-13T07:05:34.436Z,12.73
2022-10-13T07:06:07.025Z,13.00
2022-10-13T07:06:38.956Z,13.10
2022-10-13T07:07:10.567Z,13.07
2022-10-13T07:07:42.080Z,13.60
2022-10-13T07:08:14.084Z,12.32
2022-10-13T07:08:45.799Z,13.27
2022-10-13T07:09:17.703Z,12.77
2022-10-13T07:09:49.496Z,12.67
2022-10-13T07:10:21.268Z,12.10
2022-10-13T07:10:52.789Z,13.38
2022-10-13T07:11:24.334Z,12.82
2022-10-13T07:11:55.914Z,11.68
2022-10-13T07:12:27.482Z,12.40
2022-10-13T07:12:59.063Z,11.93
2022-10-13T07:13:33.590Z,11.60
2022-10-13T07:14:07.973Z,11.18
2022-10-13T07:14:41.696Z,11.07
2022-10-13T07:15:15.441Z,12.13
2022-10-13T07:15:47.105Z,12.10
2022-10-13T07:16:18.643Z,12.43